sensor_id;sensor_type;location;lat;lon;timestamp;P1;durP1;ratioP1;P2;durP2;ratioP2
43042;SDS011;28667;50.758;6.096;2023-06-26T00:01:17;3.05;;;2.55;;
43042;SDS011;28667;50.758;6.096;2023-06-26T00:03:46;4.38;;;3.10;;
43042;SDS011;28667;50.758;6.096;2023-06-26T00:06:12;4.20;;;2.40;;
43042;SDS011;28667;50.758;6.096;2023-06-26T00:08:38;4.03;;;2.83;;
43042;SDS011;28667;50.758;6.096;2023-06-26T00:11:03;2.65;;;2.22;;
43042;SDS011;28667;50.758;6.096;2023-06-26T00:13:29;2.83;;;2.53;;
43042;SDS011;28667;50.758;6.096;2023-06-26T00:15:55;4.78;;;3.17;;
43042;SDS011;28667;50.758;6.096;2023-06-26T00:18:21;2.83;;;2.35;;
43042;SDS011;28667;50.758;6.096;2023-06-26T00:20:48;3.05;;;2.75;;
43042;SDS011;28667;50.758;6.096;2023-06-26T00:23:16;2.67;;;2.40;;
43042;SDS011;28667;50.758;6.096;2023-06-26T00:25:42;3.70;;;2.25;;
43042;SDS011;28667;50.758;6.096;2023-06-26T00:28:09;3.53;;;2.65;;
43042;SDS011;28667;50.758;6.096;2023-06-26T00:30:36;4.72;;;3.35;;
43042;SDS011;28667;50.758;6.096;2023-06-26T00:33:02;3.47;;;3.10;;
43042;SDS011;28667;50.758;6.096;2023-06-26T00:35:30;4.50;;;2.97;;
43042;SDS011;28667;50.758;6.096;2023-06-26T00:37:56;4.40;;;2.90;;
43042;SDS011;28667;50.758;6.096;2023-06-26T00:40:21;4.32;;;3.15;;
43042;SDS011;28667;50.758;6.096;2023-06-26T00:42:47;4.78;;;2.40;;
43042;SDS011;28667;50.758;6.096;2023-06-26T00:45:13;4.18;;;3.33;;
43042;SDS011;28667;50.758;6.096;2023-06-26T00:47:39;4.00;;;2.80;;
43042;SDS011;28667;50.758;6.096;2023-06-26T00:50:05;3.53;;;3.05;;
43042;SDS011;28667;50.758;6.096;2023-06-26T00:52:31;4.65;;;2.58;;
43042;SDS011;28667;50.758;6.096;2023-06-26T00:54:58;4.00;;;2.90;;
43042;SDS011;28667;50.758;6.096;2023-06-26T00:57:24;2.90;;;2.47;;
43042;SDS011;28667;50.758;6.096;2023-06-26T00:59:52;2.95;;;2.63;;
43042;SDS011;28667;50.758;6.096;2023-06-26T01:02:20;2.63;;;2.40;;
43042;SDS011;28667;50.758;6.096;2023-06-26T01:04:47;3.22;;;2.47;;
43042;SDS011;28667;50.758;6.096;2023-06-26T01:07:17;3.13;;;2.55;;
43042;SDS011;28667;50.758;6.096;2023-06-26T01:09:48;3.47;;;3.08;;
43042;SDS011;28667;50.758;6.096;2023-06-26T01:12:14;5.05;;;3.05;;
43042;SDS011;28667;50.758;6.096;2023-06-26T01:14:40;3.15;;;2.83;;
43042;SDS011;28667;50.758;6.096;2023-06-26T01:17:06;3.35;;;2.60;;
43042;SDS011;28667;50.758;6.096;2023-06-26T01:19:37;6.32;;;3.17;;
43042;SDS011;28667;50.758;6.096;2023-06-26T01:24:56;4.07;;;2.85;;
43042;SDS011;28667;50.758;6.096;2023-06-26T01:27:46;3.17;;;2.88;;
43042;SDS011;28667;50.758;6.096;2023-06-26T01:30:13;3.92;;;2.92;;
43042;SDS011;28667;50.758;6.096;2023-06-26T01:32:40;4.25;;;3.30;;
43042;SDS011;28667;50.758;6.096;2023-06-26T01:35:07;4.75;;;2.92;;
43042;SDS011;28667;50.758;6.096;2023-06-26T01:37:34;3.88;;;3.05;;
43042;SDS011;28667;50.758;6.096;2023-06-26T01:40:02;3.85;;;2.80;;
43042;SDS011;28667;50.758;6.096;2023-06-26T01:42:31;3.97;;;2.92;;
43042;SDS011;28667;50.758;6.096;2023-06-26T01:44:57;4.43;;;2.90;;
43042;SDS011;28667;50.758;6.096;2023-06-26T01:47:37;5.35;;;3.17;;
43042;SDS011;28667;50.758;6.096;2023-06-26T01:50:11;4.63;;;2.90;;
43042;SDS011;28667;50.758;6.096;2023-06-26T01:52:49;4.85;;;3.42;;
43042;SDS011;28667;50.758;6.096;2023-06-26T01:58:02;4.90;;;3.40;;
43042;SDS011;28667;50.758;6.096;2023-06-26T02:00:29;3.50;;;2.88;;
43042;SDS011;28667;50.758;6.096;2023-06-26T02:02:56;4.15;;;2.88;;
43042;SDS011;28667;50.758;6.096;2023-06-26T02:05:23;4.25;;;3.50;;
43042;SDS011;28667;50.758;6.096;2023-06-26T02:07:49;3.53;;;2.88;;
43042;SDS011;28667;50.758;6.096;2023-06-26T02:10:16;4.88;;;3.55;;
43042;SDS011;28667;50.758;6.096;2023-06-26T02:12:42;7.90;;;3.72;;
43042;SDS011;28667;50.758;6.096;2023-06-26T02:15:08;4.25;;;3.22;;
43042;SDS011;28667;50.758;6.096;2023-06-26T02:17:34;3.70;;;3.30;;
43042;SDS011;28667;50.758;6.096;2023-06-26T02:20:00;5.07;;;3.83;;
43042;SDS011;28667;50.758;6.096;2023-06-26T02:22:26;6.00;;;3.28;;
43042;SDS011;28667;50.758;6.096;2023-06-26T02:24:53;5.32;;;3.42;;
43042;SDS011;28667;50.758;6.096;2023-06-26T02:27:19;4.18;;;3.20;;
43042;SDS011;28667;50.758;6.096;2023-06-26T02:29:45;6.30;;;3.17;;
43042;SDS011;28667;50.758;6.096;2023-06-26T02:32:11;4.30;;;3.50;;
43042;SDS011;28667;50.758;6.096;2023-06-26T02:34:36;4.10;;;3.60;;
43042;SDS011;28667;50.758;6.096;2023-06-26T02:37:02;4.43;;;3.25;;
43042;SDS011;28667;50.758;6.096;2023-06-26T02:39:29;5.28;;;3.30;;
43042;SDS011;28667;50.758;6.096;2023-06-26T02:41:55;4.13;;;3.40;;
43042;SDS011;28667;50.758;6.096;2023-06-26T02:44:22;4.68;;;3.75;;
43042;SDS011;28667;50.758;6.096;2023-06-26T02:46:48;4.68;;;3.78;;
43042;SDS011;28667;50.758;6.096;2023-06-26T02:49:14;6.15;;;3.78;;
43042;SDS011;28667;50.758;6.096;2023-06-26T02:51:40;4.88;;;3.25;;
43042;SDS011;28667;50.758;6.096;2023-06-26T02:54:26;6.20;;;3.08;;
43042;SDS011;28667;50.758;6.096;2023-06-26T02:56:56;5.00;;;3.25;;
43042;SDS011;28667;50.758;6.096;2023-06-26T02:59:26;4.80;;;3.13;;
43042;SDS011;28667;50.758;6.096;2023-06-26T03:01:53;6.93;;;3.05;;
43042;SDS011;28667;50.758;6.096;2023-06-26T03:04:25;5.50;;;3.22;;
43042;SDS011;28667;50.758;6.096;2023-06-26T03:06:51;3.65;;;2.90;;
43042;SDS011;28667;50.758;6.096;2023-06-26T03:09:16;4.80;;;2.75;;
43042;SDS011;28667;50.758;6.096;2023-06-26T03:11:43;4.70;;;3.40;;
43042;SDS011;28667;50.758;6.096;2023-06-26T03:14:10;4.13;;;2.92;;
43042;SDS011;28667;50.758;6.096;2023-06-26T03:16:36;4.28;;;3.08;;
43042;SDS011;28667;50.758;6.096;2023-06-26T03:19:02;4.82;;;2.90;;
43042;SDS011;28667;50.758;6.096;2023-06-26T03:21:32;4.78;;;3.08;;
43042;SDS011;28667;50.758;6.096;2023-06-26T03:23:58;5.13;;;2.80;;
43042;SDS011;28667;50.758;6.096;2023-06-26T03:26:24;3.95;;;2.95;;
43042;SDS011;28667;50.758;6.096;2023-06-26T03:28:53;5.57;;;3.10;;
43042;SDS011;28667;50.758;6.096;2023-06-26T03:31:20;8.70;;;2.78;;
43042;SDS011;28667;50.758;6.096;2023-06-26T03:33:46;7.38;;;3.00;;
43042;SDS011;28667;50.758;6.096;2023-06-26T03:36:12;4.35;;;3.35;;
43042;SDS011;28667;50.758;6.096;2023-06-26T03:38:37;4.22;;;3.05;;
43042;SDS011;28667;50.758;6.096;2023-06-26T03:41:03;3.72;;;3.22;;
43042;SDS011;28667;50.758;6.096;2023-06-26T03:43:29;7.35;;;3.33;;
43042;SDS011;28667;50.758;6.096;2023-06-26T03:46:18;5.70;;;3.45;;
43042;SDS011;28667;50.758;6.096;2023-06-26T03:48:43;6.28;;;3.72;;
43042;SDS011;28667;50.758;6.096;2023-06-26T03:51:09;4.72;;;3.28;;
43042;SDS011;28667;50.758;6.096;2023-06-26T03:53:36;6.45;;;3.60;;
43042;SDS011;28667;50.758;6.096;2023-06-26T03:56:02;5.20;;;2.88;;
43042;SDS011;28667;50.758;6.096;2023-06-26T03:58:28;5.63;;;3.40;;
43042;SDS011;28667;50.758;6.096;2023-06-26T04:00:54;7.78;;;3.25;;
43042;SDS011;28667;50.758;6.096;2023-06-26T04:03:21;3.50;;;2.78;;
43042;SDS011;28667;50.758;6.096;2023-06-26T04:05:47;4.47;;;3.60;;
43042;SDS011;28667;50.758;6.096;2023-06-26T04:08:12;4.60;;;2.95;;
43042;SDS011;28667;50.758;6.096;2023-06-26T04:10:38;5.28;;;2.97;;
43042;SDS011;28667;50.758;6.096;2023-06-26T04:13:04;3.38;;;2.67;;
43042;SDS011;28667;50.758;6.096;2023-06-26T04:15:30;3.45;;;2.60;;
43042;SDS011;28667;50.758;6.096;2023-06-26T04:17:56;2.50;;;2.30;;
43042;SDS011;28667;50.758;6.096;2023-06-26T04:20:21;4.85;;;2.88;;
43042;SDS011;28667;50.758;6.096;2023-06-26T04:22:47;5.10;;;2.03;;
43042;SDS011;28667;50.758;6.096;2023-06-26T04:25:13;5.10;;;2.80;;
43042;SDS011;28667;50.758;6.096;2023-06-26T04:27:39;3.95;;;2.22;;
43042;SDS011;28667;50.758;6.096;2023-06-26T04:30:05;3.42;;;2.50;;
43042;SDS011;28667;50.758;6.096;2023-06-26T04:32:31;4.05;;;2.17;;
43042;SDS011;28667;50.758;6.096;2023-06-26T04:34:57;4.68;;;2.55;;
43042;SDS011;28667;50.758;6.096;2023-06-26T04:37:22;2.83;;;1.75;;
43042;SDS011;28667;50.758;6.096;2023-06-26T04:39:49;2.95;;;2.22;;
43042;SDS011;28667;50.758;6.096;2023-06-26T04:42:15;2.65;;;2.15;;
43042;SDS011;28667;50.758;6.096;2023-06-26T04:44:41;4.95;;;2.47;;
43042;SDS011;28667;50.758;6.096;2023-06-26T04:47:10;5.82;;;2.10;;
43042;SDS011;28667;50.758;6.096;2023-06-26T04:49:36;3.05;;;2.10;;
43042;SDS011;28667;50.758;6.096;2023-06-26T04:52:01;3.88;;;2.05;;
43042;SDS011;28667;50.758;6.096;2023-06-26T04:54:28;3.08;;;2.15;;
43042;SDS011;28667;50.758;6.096;2023-06-26T04:56:53;3.80;;;2.05;;
43042;SDS011;28667;50.758;6.096;2023-06-26T04:59:19;5.13;;;2.20;;
43042;SDS011;28667;50.758;6.096;2023-06-26T05:01:45;5.25;;;1.90;;
43042;SDS011;28667;50.758;6.096;2023-06-26T05:04:13;7.38;;;2.50;;
43042;SDS011;28667;50.758;6.096;2023-06-26T05:06:42;3.25;;;2.05;;
43042;SDS011;28667;50.758;6.096;2023-06-26T05:09:08;8.27;;;2.33;;
43042;SDS011;28667;50.758;6.096;2023-06-26T05:11:36;4.25;;;2.20;;
43042;SDS011;28667;50.758;6.096;2023-06-26T05:14:02;5.78;;;2.33;;
43042;SDS011;28667;50.758;6.096;2023-06-26T05:16:27;4.50;;;1.80;;
43042;SDS011;28667;50.758;6.096;2023-06-26T05:18:53;7.68;;;2.50;;
43042;SDS011;28667;50.758;6.096;2023-06-26T05:21:19;4.88;;;2.30;;
43042;SDS011;28667;50.758;6.096;2023-06-26T05:23:45;4.93;;;2.20;;
43042;SDS011;28667;50.758;6.096;2023-06-26T05:26:12;3.67;;;2.10;;
43042;SDS011;28667;50.758;6.096;2023-06-26T05:28:38;6.78;;;2.53;;
43042;SDS011;28667;50.758;6.096;2023-06-26T05:31:05;5.50;;;2.45;;
43042;SDS011;28667;50.758;6.096;2023-06-26T05:33:31;6.18;;;2.55;;
43042;SDS011;28667;50.758;6.096;2023-06-26T05:36:00;3.67;;;2.25;;
43042;SDS011;28667;50.758;6.096;2023-06-26T05:38:29;7.43;;;2.72;;
43042;SDS011;28667;50.758;6.096;2023-06-26T05:40:55;5.88;;;2.33;;
43042;SDS011;28667;50.758;6.096;2023-06-26T05:43:21;6.40;;;2.28;;
43042;SDS011;28667;50.758;6.096;2023-06-26T05:45:48;8.48;;;2.72;;
43042;SDS011;28667;50.758;6.096;2023-06-26T05:48:14;10.07;;;2.85;;
43042;SDS011;28667;50.758;6.096;2023-06-26T05:50:40;7.88;;;2.85;;
43042;SDS011;28667;50.758;6.096;2023-06-26T05:53:07;5.95;;;2.30;;
43042;SDS011;28667;50.758;6.096;2023-06-26T05:55:33;8.98;;;2.58;;
43042;SDS011;28667;50.758;6.096;2023-06-26T05:57:59;4.05;;;3.50;;
43042;SDS011;28667;50.758;6.096;2023-06-26T06:00:27;4.50;;;2.10;;
43042;SDS011;28667;50.758;6.096;2023-06-26T06:02:53;4.95;;;2.60;;
43042;SDS011;28667;50.758;6.096;2023-06-26T06:05:19;6.28;;;3.25;;
43042;SDS011;28667;50.758;6.096;2023-06-26T06:07:46;6.38;;;2.38;;
43042;SDS011;28667;50.758;6.096;2023-06-26T06:10:12;3.17;;;2.60;;
43042;SDS011;28667;50.758;6.096;2023-06-26T06:12:38;6.03;;;2.50;;
43042;SDS011;28667;50.758;6.096;2023-06-26T06:15:04;20.67;;;3.85;;
43042;SDS011;28667;50.758;6.096;2023-06-26T06:17:30;3.50;;;2.88;;
43042;SDS011;28667;50.758;6.096;2023-06-26T06:19:56;5.07;;;2.80;;
43042;SDS011;28667;50.758;6.096;2023-06-26T06:22:22;5.72;;;3.00;;
43042;SDS011;28667;50.758;6.096;2023-06-26T06:24:48;7.43;;;3.15;;
43042;SDS011;28667;50.758;6.096;2023-06-26T06:27:15;3.53;;;2.53;;
43042;SDS011;28667;50.758;6.096;2023-06-26T06:29:40;8.57;;;3.72;;
43042;SDS011;28667;50.758;6.096;2023-06-26T06:32:06;6.57;;;3.80;;
43042;SDS011;28667;50.758;6.096;2023-06-26T06:34:32;6.47;;;3.30;;
43042;SDS011;28667;50.758;6.096;2023-06-26T06:36:58;4.10;;;2.60;;
43042;SDS011;28667;50.758;6.096;2023-06-26T06:39:24;4.78;;;2.90;;
43042;SDS011;28667;50.758;6.096;2023-06-26T06:41:49;6.93;;;2.95;;
43042;SDS011;28667;50.758;6.096;2023-06-26T06:44:16;4.38;;;3.17;;
43042;SDS011;28667;50.758;6.096;2023-06-26T06:46:41;4.30;;;2.85;;
43042;SDS011;28667;50.758;6.096;2023-06-26T06:49:08;5.03;;;2.25;;
43042;SDS011;28667;50.758;6.096;2023-06-26T06:51:34;5.90;;;3.15;;
43042;SDS011;28667;50.758;6.096;2023-06-26T06:54:00;4.95;;;2.30;;
43042;SDS011;28667;50.758;6.096;2023-06-26T06:56:26;4.55;;;2.70;;
43042;SDS011;28667;50.758;6.096;2023-06-26T06:58:52;7.15;;;2.58;;
43042;SDS011;28667;50.758;6.096;2023-06-26T07:01:17;5.72;;;2.88;;
43042;SDS011;28667;50.758;6.096;2023-06-26T07:03:43;3.83;;;2.35;;
43042;SDS011;28667;50.758;6.096;2023-06-26T07:06:09;4.88;;;2.40;;
43042;SDS011;28667;50.758;6.096;2023-06-26T07:08:34;7.32;;;2.42;;
43042;SDS011;28667;50.758;6.096;2023-06-26T07:11:00;4.55;;;2.25;;
43042;SDS011;28667;50.758;6.096;2023-06-26T07:13:26;2.53;;;2.30;;
43042;SDS011;28667;50.758;6.096;2023-06-26T07:15:52;5.40;;;2.10;;
43042;SDS011;28667;50.758;6.096;2023-06-26T07:18:18;3.53;;;1.92;;
43042;SDS011;28667;50.758;6.096;2023-06-26T07:20:43;4.68;;;2.40;;
43042;SDS011;28667;50.758;6.096;2023-06-26T07:23:09;5.63;;;2.63;;
43042;SDS011;28667;50.758;6.096;2023-06-26T07:25:35;6.38;;;2.30;;
43042;SDS011;28667;50.758;6.096;2023-06-26T07:28:01;6.35;;;2.50;;
43042;SDS011;28667;50.758;6.096;2023-06-26T07:30:27;6.18;;;2.10;;
43042;SDS011;28667;50.758;6.096;2023-06-26T07:32:52;6.93;;;2.05;;
43042;SDS011;28667;50.758;6.096;2023-06-26T07:35:18;5.88;;;1.98;;
43042;SDS011;28667;50.758;6.096;2023-06-26T07:37:44;6.50;;;2.20;;
43042;SDS011;28667;50.758;6.096;2023-06-26T07:40:10;2.85;;;1.70;;
43042;SDS011;28667;50.758;6.096;2023-06-26T07:42:36;7.05;;;2.05;;
43042;SDS011;28667;50.758;6.096;2023-06-26T07:45:02;8.57;;;2.63;;
43042;SDS011;28667;50.758;6.096;2023-06-26T07:47:35;6.57;;;2.25;;
43042;SDS011;28667;50.758;6.096;2023-06-26T07:50:02;1.90;;;1.65;;
43042;SDS011;28667;50.758;6.096;2023-06-26T07:52:28;6.43;;;2.30;;
43042;SDS011;28667;50.758;6.096;2023-06-26T07:54:55;4.90;;;2.10;;
43042;SDS011;28667;50.758;6.096;2023-06-26T07:57:21;9.15;;;2.10;;
43042;SDS011;28667;50.758;6.096;2023-06-26T07:59:47;6.80;;;2.53;;
43042;SDS011;28667;50.758;6.096;2023-06-26T08:02:13;4.53;;;1.95;;
43042;SDS011;28667;50.758;6.096;2023-06-26T08:04:38;5.18;;;1.83;;
43042;SDS011;28667;50.758;6.096;2023-06-26T08:07:04;8.98;;;2.20;;
43042;SDS011;28667;50.758;6.096;2023-06-26T08:09:30;4.45;;;2.50;;
43042;SDS011;28667;50.758;6.096;2023-06-26T08:11:56;7.53;;;1.85;;
43042;SDS011;28667;50.758;6.096;2023-06-26T08:14:23;5.15;;;1.83;;
43042;SDS011;28667;50.758;6.096;2023-06-26T08:16:49;5.15;;;1.67;;
43042;SDS011;28667;50.758;6.096;2023-06-26T08:19:15;2.65;;;1.95;;
43042;SDS011;28667;50.758;6.096;2023-06-26T08:21:42;6.30;;;2.25;;
43042;SDS011;28667;50.758;6.096;2023-06-26T08:24:08;3.17;;;1.70;;
43042;SDS011;28667;50.758;6.096;2023-06-26T08:26:35;5.57;;;2.40;;
43042;SDS011;28667;50.758;6.096;2023-06-26T08:29:01;2.45;;;2.10;;
43042;SDS011;28667;50.758;6.096;2023-06-26T08:31:33;3.42;;;1.85;;
43042;SDS011;28667;50.758;6.096;2023-06-26T08:34:02;2.22;;;1.55;;
43042;SDS011;28667;50.758;6.096;2023-06-26T08:36:29;5.72;;;2.00;;
43042;SDS011;28667;50.758;6.096;2023-06-26T08:38:55;4.45;;;1.13;;
43042;SDS011;28667;50.758;6.096;2023-06-26T08:41:21;7.30;;;1.85;;
43042;SDS011;28667;50.758;6.096;2023-06-26T08:43:47;6.78;;;1.75;;
43042;SDS011;28667;50.758;6.096;2023-06-26T08:46:14;2.20;;;1.40;;
43042;SDS011;28667;50.758;6.096;2023-06-26T08:48:40;2.90;;;1.42;;
43042;SDS011;28667;50.758;6.096;2023-06-26T08:51:09;6.68;;;1.65;;
43042;SDS011;28667;50.758;6.096;2023-06-26T08:53:57;5.82;;;1.80;;
43042;SDS011;28667;50.758;6.096;2023-06-26T08:56:27;3.13;;;1.75;;
43042;SDS011;28667;50.758;6.096;2023-06-26T08:58:57;8.48;;;1.70;;
43042;SDS011;28667;50.758;6.096;2023-06-26T09:01:23;2.15;;;1.40;;
43042;SDS011;28667;50.758;6.096;2023-06-26T09:03:50;5.22;;;1.77;;
43042;SDS011;28667;50.758;6.096;2023-06-26T09:06:17;4.78;;;1.30;;
43042;SDS011;28667;50.758;6.096;2023-06-26T09:08:43;7.60;;;1.48;;
43042;SDS011;28667;50.758;6.096;2023-06-26T09:11:09;4.43;;;1.20;;
43042;SDS011;28667;50.758;6.096;2023-06-26T09:13:35;3.13;;;1.17;;
43042;SDS011;28667;50.758;6.096;2023-06-26T09:16:05;3.35;;;1.38;;
43042;SDS011;28667;50.758;6.096;2023-06-26T09:18:33;5.60;;;1.55;;
43042;SDS011;28667;50.758;6.096;2023-06-26T09:20:58;2.83;;;1.05;;
43042;SDS011;28667;50.758;6.096;2023-06-26T09:23:24;3.00;;;1.27;;
43042;SDS011;28667;50.758;6.096;2023-06-26T09:25:51;9.32;;;1.40;;
43042;SDS011;28667;50.758;6.096;2023-06-26T09:28:17;5.25;;;1.40;;
43042;SDS011;28667;50.758;6.096;2023-06-26T09:30:44;4.97;;;1.35;;
43042;SDS011;28667;50.758;6.096;2023-06-26T09:33:20;5.72;;;1.15;;
43042;SDS011;28667;50.758;6.096;2023-06-26T09:35:47;6.38;;;1.38;;
43042;SDS011;28667;50.758;6.096;2023-06-26T09:38:13;5.57;;;1.17;;
43042;SDS011;28667;50.758;6.096;2023-06-26T09:40:40;2.60;;;1.25;;
43042;SDS011;28667;50.758;6.096;2023-06-26T09:43:06;4.97;;;1.25;;
43042;SDS011;28667;50.758;6.096;2023-06-26T09:45:35;5.43;;;1.27;;
43042;SDS011;28667;50.758;6.096;2023-06-26T09:48:02;2.83;;;1.77;;
43042;SDS011;28667;50.758;6.096;2023-06-26T09:50:29;7.07;;;1.80;;
43042;SDS011;28667;50.758;6.096;2023-06-26T09:52:59;5.20;;;1.70;;
43042;SDS011;28667;50.758;6.096;2023-06-26T09:55:36;2.15;;;1.40;;
43042;SDS011;28667;50.758;6.096;2023-06-26T09:58:03;4.88;;;1.90;;
43042;SDS011;28667;50.758;6.096;2023-06-26T10:00:30;2.33;;;1.38;;
43042;SDS011;28667;50.758;6.096;2023-06-26T10:02:57;4.18;;;1.35;;
43042;SDS011;28667;50.758;6.096;2023-06-26T10:05:23;2.90;;;1.70;;
43042;SDS011;28667;50.758;6.096;2023-06-26T10:07:49;1.15;;;0.88;;
43042;SDS011;28667;50.758;6.096;2023-06-26T10:10:15;1.92;;;1.33;;
43042;SDS011;28667;50.758;6.096;2023-06-26T10:12:42;3.42;;;1.40;;
43042;SDS011;28667;50.758;6.096;2023-06-26T10:15:11;4.22;;;0.98;;
43042;SDS011;28667;50.758;6.096;2023-06-26T10:17:41;2.45;;;1.10;;
43042;SDS011;28667;50.758;6.096;2023-06-26T10:20:08;3.55;;;0.93;;
43042;SDS011;28667;50.758;6.096;2023-06-26T10:22:41;3.47;;;1.50;;
43042;SDS011;28667;50.758;6.096;2023-06-26T10:25:09;4.85;;;1.20;;
43042;SDS011;28667;50.758;6.096;2023-06-26T10:27:41;4.32;;;1.10;;
43042;SDS011;28667;50.758;6.096;2023-06-26T10:30:12;4.93;;;1.77;;
43042;SDS011;28667;50.758;6.096;2023-06-26T10:32:41;5.63;;;1.30;;
43042;SDS011;28667;50.758;6.096;2023-06-26T10:35:08;6.55;;;1.20;;
43042;SDS011;28667;50.758;6.096;2023-06-26T10:37:46;1.70;;;1.30;;
43042;SDS011;28667;50.758;6.096;2023-06-26T10:40:13;4.43;;;1.30;;
43042;SDS011;28667;50.758;6.096;2023-06-26T10:42:45;4.70;;;1.45;;
43042;SDS011;28667;50.758;6.096;2023-06-26T10:45:15;2.58;;;1.10;;
43042;SDS011;28667;50.758;6.096;2023-06-26T10:47:48;2.85;;;1.17;;
43042;SDS011;28667;50.758;6.096;2023-06-26T10:55:41;2.88;;;1.08;;
43042;SDS011;28667;50.758;6.096;2023-06-26T11:06:30;2.30;;;1.10;;
43042;SDS011;28667;50.758;6.096;2023-06-26T11:14:20;3.80;;;1.00;;
43042;SDS011;28667;50.758;6.096;2023-06-26T11:16:47;4.47;;;1.10;;
43042;SDS011;28667;50.758;6.096;2023-06-26T11:19:14;2.45;;;0.90;;
43042;SDS011;28667;50.758;6.096;2023-06-26T11:21:41;1.95;;;0.90;;
43042;SDS011;28667;50.758;6.096;2023-06-26T11:24:09;4.38;;;1.20;;
43042;SDS011;28667;50.758;6.096;2023-06-26T11:26:39;2.35;;;0.95;;
43042;SDS011;28667;50.758;6.096;2023-06-26T11:29:06;2.85;;;0.90;;
43042;SDS011;28667;50.758;6.096;2023-06-26T11:31:36;2.78;;;1.00;;
43042;SDS011;28667;50.758;6.096;2023-06-26T11:34:04;1.65;;;0.80;;
43042;SDS011;28667;50.758;6.096;2023-06-26T11:36:41;2.45;;;0.95;;
43042;SDS011;28667;50.758;6.096;2023-06-26T11:39:09;3.00;;;0.93;;
43042;SDS011;28667;50.758;6.096;2023-06-26T11:41:35;2.83;;;0.88;;
43042;SDS011;28667;50.758;6.096;2023-06-26T11:44:02;2.95;;;0.90;;
43042;SDS011;28667;50.758;6.096;2023-06-26T11:46:36;4.15;;;0.80;;
43042;SDS011;28667;50.758;6.096;2023-06-26T11:49:03;1.70;;;0.90;;
43042;SDS011;28667;50.758;6.096;2023-06-26T11:51:32;0.68;;;0.68;;
43042;SDS011;28667;50.758;6.096;2023-06-26T11:54:02;1.38;;;0.60;;
43042;SDS011;28667;50.758;6.096;2023-06-26T11:56:30;1.67;;;0.63;;
43042;SDS011;28667;50.758;6.096;2023-06-26T11:59:00;2.38;;;0.65;;
43042;SDS011;28667;50.758;6.096;2023-06-26T12:01:34;0.95;;;0.60;;
43042;SDS011;28667;50.758;6.096;2023-06-26T12:04:09;1.58;;;0.55;;
43042;SDS011;28667;50.758;6.096;2023-06-26T12:06:37;1.92;;;0.75;;
43042;SDS011;28667;50.758;6.096;2023-06-26T12:09:05;2.58;;;0.90;;
43042;SDS011;28667;50.758;6.096;2023-06-26T12:11:34;4.32;;;0.65;;
43042;SDS011;28667;50.758;6.096;2023-06-26T12:14:02;1.85;;;0.68;;
43042;SDS011;28667;50.758;6.096;2023-06-26T12:16:29;5.47;;;1.90;;
43042;SDS011;28667;50.758;6.096;2023-06-26T12:19:14;1.70;;;0.60;;
43042;SDS011;28667;50.758;6.096;2023-06-26T12:24:06;6.72;;;0.82;;
43042;SDS011;28667;50.758;6.096;2023-06-26T12:26:33;4.22;;;1.08;;
43042;SDS011;28667;50.758;6.096;2023-06-26T12:29:08;1.67;;;0.93;;
43042;SDS011;28667;50.758;6.096;2023-06-26T12:34:08;3.13;;;0.90;;
43042;SDS011;28667;50.758;6.096;2023-06-26T12:36:42;1.73;;;0.70;;
43042;SDS011;28667;50.758;6.096;2023-06-26T12:39:10;3.03;;;0.52;;
43042;SDS011;28667;50.758;6.096;2023-06-26T12:41:51;1.15;;;0.68;;
43042;SDS011;28667;50.758;6.096;2023-06-26T12:46:46;1.15;;;0.57;;
43042;SDS011;28667;50.758;6.096;2023-06-26T12:49:13;0.68;;;0.60;;
43042;SDS011;28667;50.758;6.096;2023-06-26T12:51:39;1.90;;;1.05;;
43042;SDS011;28667;50.758;6.096;2023-06-26T12:54:05;4.47;;;1.02;;
43042;SDS011;28667;50.758;6.096;2023-06-26T12:56:31;7.85;;;1.85;;
43042;SDS011;28667;50.758;6.096;2023-06-26T12:58:57;1.77;;;1.02;;
43042;SDS011;28667;50.758;6.096;2023-06-26T13:01:22;2.22;;;0.90;;
43042;SDS011;28667;50.758;6.096;2023-06-26T13:03:49;1.23;;;0.93;;
43042;SDS011;28667;50.758;6.096;2023-06-26T13:06:16;4.03;;;0.93;;
43042;SDS011;28667;50.758;6.096;2023-06-26T13:08:42;1.40;;;0.65;;
43042;SDS011;28667;50.758;6.096;2023-06-26T13:11:08;3.55;;;0.68;;
43042;SDS011;28667;50.758;6.096;2023-06-26T13:13:34;1.08;;;0.70;;
43042;SDS011;28667;50.758;6.096;2023-06-26T13:16:00;1.02;;;0.70;;
43042;SDS011;28667;50.758;6.096;2023-06-26T13:18:27;1.65;;;0.52;;
43042;SDS011;28667;50.758;6.096;2023-06-26T13:20:53;3.03;;;0.80;;
43042;SDS011;28667;50.758;6.096;2023-06-26T13:23:18;2.90;;;0.90;;
43042;SDS011;28667;50.758;6.096;2023-06-26T13:25:44;3.00;;;0.98;;
43042;SDS011;28667;50.758;6.096;2023-06-26T13:28:10;2.95;;;0.55;;
43042;SDS011;28667;50.758;6.096;2023-06-26T13:30:36;1.73;;;0.80;;
43042;SDS011;28667;50.758;6.096;2023-06-26T13:33:02;3.88;;;0.63;;
43042;SDS011;28667;50.758;6.096;2023-06-26T13:35:29;3.38;;;0.90;;
43042;SDS011;28667;50.758;6.096;2023-06-26T13:37:54;1.33;;;0.80;;
43042;SDS011;28667;50.758;6.096;2023-06-26T13:40:20;1.83;;;0.60;;
43042;SDS011;28667;50.758;6.096;2023-06-26T13:42:46;3.17;;;0.52;;
43042;SDS011;28667;50.758;6.096;2023-06-26T13:45:11;1.30;;;0.98;;
43042;SDS011;28667;50.758;6.096;2023-06-26T13:47:37;2.70;;;0.60;;
43042;SDS011;28667;50.758;6.096;2023-06-26T13:50:06;2.67;;;0.80;;
43042;SDS011;28667;50.758;6.096;2023-06-26T13:52:34;0.63;;;0.60;;
43042;SDS011;28667;50.758;6.096;2023-06-26T13:55:00;1.95;;;0.50;;
43042;SDS011;28667;50.758;6.096;2023-06-26T13:57:29;1.08;;;0.73;;
43042;SDS011;28667;50.758;6.096;2023-06-26T13:59:55;3.42;;;0.63;;
43042;SDS011;28667;50.758;6.096;2023-06-26T14:02:22;1.60;;;0.90;;
43042;SDS011;28667;50.758;6.096;2023-06-26T14:04:47;1.90;;;0.77;;
43042;SDS011;28667;50.758;6.096;2023-06-26T14:07:13;1.70;;;0.82;;
43042;SDS011;28667;50.758;6.096;2023-06-26T14:09:39;1.17;;;1.05;;
43042;SDS011;28667;50.758;6.096;2023-06-26T14:12:05;1.58;;;0.52;;
43042;SDS011;28667;50.758;6.096;2023-06-26T14:14:32;3.67;;;0.70;;
43042;SDS011;28667;50.758;6.096;2023-06-26T14:16:58;3.22;;;0.80;;
43042;SDS011;28667;50.758;6.096;2023-06-26T14:19:24;1.73;;;1.02;;
43042;SDS011;28667;50.758;6.096;2023-06-26T14:21:51;2.95;;;0.60;;
43042;SDS011;28667;50.758;6.096;2023-06-26T14:24:17;2.00;;;1.00;;
43042;SDS011;28667;50.758;6.096;2023-06-26T14:26:43;3.00;;;0.75;;
43042;SDS011;28667;50.758;6.096;2023-06-26T14:29:08;1.73;;;1.13;;
43042;SDS011;28667;50.758;6.096;2023-06-26T14:31:34;2.13;;;0.80;;
43042;SDS011;28667;50.758;6.096;2023-06-26T14:34:00;2.00;;;0.82;;
43042;SDS011;28667;50.758;6.096;2023-06-26T14:36:27;3.28;;;0.70;;
43042;SDS011;28667;50.758;6.096;2023-06-26T14:38:56;5.80;;;1.08;;
43042;SDS011;28667;50.758;6.096;2023-06-26T14:41:22;2.20;;;0.80;;
43042;SDS011;28667;50.758;6.096;2023-06-26T14:43:47;2.10;;;0.50;;
43042;SDS011;28667;50.758;6.096;2023-06-26T14:46:13;2.97;;;0.70;;
43042;SDS011;28667;50.758;6.096;2023-06-26T14:48:39;1.30;;;0.77;;
43042;SDS011;28667;50.758;6.096;2023-06-26T14:51:05;0.73;;;0.73;;
43042;SDS011;28667;50.758;6.096;2023-06-26T14:53:31;1.67;;;0.60;;
43042;SDS011;28667;50.758;6.096;2023-06-26T14:55:56;1.23;;;0.60;;
43042;SDS011;28667;50.758;6.096;2023-06-26T14:58:22;2.70;;;0.60;;
43042;SDS011;28667;50.758;6.096;2023-06-26T15:00:48;0.55;;;0.55;;
43042;SDS011;28667;50.758;6.096;2023-06-26T15:03:14;2.70;;;0.80;;
43042;SDS011;28667;50.758;6.096;2023-06-26T15:05:39;2.35;;;0.77;;
43042;SDS011;28667;50.758;6.096;2023-06-26T15:08:05;3.47;;;0.65;;
43042;SDS011;28667;50.758;6.096;2023-06-26T15:10:31;3.65;;;0.88;;
43042;SDS011;28667;50.758;6.096;2023-06-26T15:12:56;3.97;;;0.90;;
43042;SDS011;28667;50.758;6.096;2023-06-26T15:15:24;4.10;;;0.82;;
43042;SDS011;28667;50.758;6.096;2023-06-26T15:17:50;1.70;;;0.90;;
43042;SDS011;28667;50.758;6.096;2023-06-26T15:20:15;5.05;;;1.15;;